Time;durP1;ratioP1;P1;durP2;ratioP2;P2;SDS_P1;SDS_P2;PMS_P1;PMS_P2;Temp;Humidity;BMP_temperature;BMP_pressure;BME280_temperature;BME280_humidity;BME280_pressure;Samples;Min_cycle;Max_cycle;Signal;HPM_P1;HPM_P2
2023/08/18 00:01:23;;;;;;;6.18;1.60;;;;;;;-145.69;nan;51836.44;5096904;28;20228;-83
2023/08/18 00:03:50;;;;;;;3.95;1.60;;;;;;;-145.69;nan;51858.22;5114215;28;20197;-82
2023/08/18 00:06:16;;;;;;;6.20;1.20;;;;;;;-145.69;nan;51838.44;5113682;28;20202;-82
2023/08/18 00:08:43;;;;;;;4.00;1.60;;;;;;;-145.69;nan;51830.50;5113813;28;20287;-82
2023/08/18 00:11:11;;;;;;;4.03;1.70;;;;;;;-145.69;nan;51842.38;5113456;28;20212;-82
2023/08/18 00:13:37;;;;;;;4.30;1.60;;;;;;;-145.69;nan;51848.34;5113971;28;20229;-82
2023/08/18 00:16:04;;;;;;;5.07;1.52;;;;;;;-145.69;nan;51810.72;5113453;28;20660;-82
2023/08/18 00:18:30;;;;;;;3.95;1.40;;;;;;;-145.69;nan;51860.22;5113256;28;20652;-81
2023/08/18 00:20:57;;;;;;;7.30;1.70;;;;;;;-145.69;nan;51850.31;5112757;28;20225;-82
2023/08/18 00:23:24;;;;;;;2.08;1.50;;;;;;;-145.69;nan;51874.06;5113159;28;20193;-82
2023/08/18 00:25:50;;;;;;;3.58;1.50;;;;;;;-145.69;nan;51846.34;5113463;28;20202;-82
2023/08/18 00:28:18;;;;;;;5.15;1.55;;;;;;;-145.69;nan;51862.19;5113291;28;20208;-82
2023/08/18 00:30:45;;;;;;;4.05;1.60;;;;;;;-145.69;nan;51862.19;5113376;28;20587;-82
2023/08/18 00:33:11;;;;;;;4.88;1.80;;;;;;;-145.69;nan;51852.28;5113463;28;20205;-82
2023/08/18 00:35:38;;;;;;;7.28;1.48;;;;;;;-145.69;nan;51862.19;5113011;28;20652;-82
2023/08/18 00:38:04;;;;;;;2.55;1.55;;;;;;;-145.69;nan;51885.94;5113041;28;20200;-82
2023/08/18 00:40:31;;;;;;;4.70;1.63;;;;;;;-145.69;nan;51882.00;5113167;28;20698;-82
2023/08/18 00:42:57;;;;;;;4.15;1.48;;;;;;;-145.69;nan;51878.03;5113114;28;20198;-81
2023/08/18 00:45:27;;;;;;;6.68;1.70;;;;;;;-145.69;nan;51864.16;5113042;28;20251;-82
2023/08/18 00:47:53;;;;;;;4.30;1.58;;;;;;;-145.69;nan;51850.31;5113298;28;20202;-81
2023/08/18 00:50:21;;;;;;;3.47;1.60;;;;;;;-145.69;nan;51874.06;5113195;28;20209;-81
2023/08/18 00:52:57;;;;;;;3.47;1.42;;;;;;;-145.69;nan;51889.91;5112677;28;20200;-82
2023/08/18 00:55:24;;;;;;;10.00;2.17;;;;;;;-145.69;nan;51866.16;5112779;28;20613;-82
2023/08/18 00:57:50;;;;;;;3.05;1.92;;;;;;;-145.69;nan;51893.88;5112807;28;20830;-81
2023/08/18 01:00:18;;;;;;;2.35;1.63;;;;;;;-145.69;nan;51878.03;5113243;28;20204;-82
2023/08/18 01:02:46;;;;;;;5.47;2.10;;;;;;;-145.69;nan;51901.78;5113126;28;20196;-82
2023/08/18 01:05:13;;;;;;;4.43;1.42;;;;;;;-145.69;nan;51882.00;5112696;28;20672;-82
2023/08/18 01:07:39;;;;;;;3.42;1.70;;;;;;;-145.69;nan;51913.69;5113827;28;20198;-82
2023/08/18 01:10:06;;;;;;;6.65;1.67;;;;;;;-145.69;nan;51901.78;5118469;28;20213;-81
2023/08/18 01:12:42;;;;;;;5.15;2.00;;;;;;;-145.69;nan;51870.13;5113727;28;20212;-82
2023/08/18 01:15:19;;;;;;;4.28;1.77;;;;;;;-145.69;nan;51878.03;5113095;28;20233;-81
2023/08/18 01:17:51;;;;;;;3.10;1.90;;;;;;;-145.69;nan;51893.88;5112946;28;20196;-83
2023/08/18 01:20:19;;;;;;;4.82;1.67;;;;;;;-145.69;nan;51899.81;5113275;28;20551;-82
2023/08/18 01:22:49;;;;;;;3.90;1.63;;;;;;;-145.69;nan;51885.94;5104213;28;20194;-82
2023/08/18 01:25:17;;;;;;;2.63;1.70;;;;;;;-145.69;nan;51901.78;5097793;28;20652;-82
2023/08/18 01:27:44;;;;;;;3.33;1.83;;;;;;;-145.69;nan;51897.84;5112510;28;20679;-81
2023/08/18 01:30:11;;;;;;;3.50;1.90;;;;;;;-145.69;nan;51882.00;5112407;28;20687;-82
2023/08/18 01:32:42;;;;;;;3.88;1.63;;;;;;;-145.69;nan;51893.88;5112544;28;20224;-82
2023/08/18 01:35:11;;;;;;;4.10;2.03;;;;;;;-145.69;nan;51917.63;5112483;28;20683;-82
2023/08/18 01:37:39;;;;;;;4.50;1.70;;;;;;;-145.69;nan;51870.13;5112885;28;20194;-81
2023/08/18 01:40:10;;;;;;;4.93;1.85;;;;;;;-145.69;nan;51905.75;5112751;28;20197;-81
2023/08/18 01:42:39;;;;;;;4.10;1.80;;;;;;;-145.69;nan;51893.88;5112191;28;20217;-81
2023/08/18 01:45:08;;;;;;;4.55;1.85;;;;;;;-145.69;nan;51899.81;5112656;28;20209;-82
2023/08/18 01:47:35;;;;;;;2.42;1.70;;;;;;;-145.69;nan;51909.72;5115878;28;20617;-82
2023/08/18 01:50:01;;;;;;;3.92;1.85;;;;;;;-145.69;nan;51901.78;5116218;28;20197;-82
2023/08/18 01:52:28;;;;;;;5.18;1.83;;;;;;;-145.69;nan;51917.63;5114788;28;20197;-81
2023/08/18 01:54:54;;;;;;;6.45;2.53;;;;;;;-145.69;nan;51947.34;5115665;28;20197;-82
2023/08/18 01:57:21;;;;;;;5.88;1.98;;;;;;;-145.69;nan;51878.03;5116281;28;20194;-82
2023/08/18 01:59:49;;;;;;;4.30;1.95;;;;;;;-145.69;nan;51899.81;5115754;28;20201;-82
2023/08/18 02:02:15;;;;;;;4.43;2.10;;;;;;;-145.69;nan;51921.59;5115669;28;20679;-80
2023/08/18 02:04:41;;;;;;;4.88;1.50;;;;;;;-145.69;nan;51945.34;5115735;28;20197;-81
2023/08/18 02:07:08;;;;;;;2.42;1.50;;;;;;;-145.69;nan;51923.56;5115824;28;20201;-81
2023/08/18 02:09:35;;;;;;;3.05;1.90;;;;;;;-145.69;nan;51901.78;5115573;28;20230;-81
2023/08/18 02:12:01;;;;;;;3.17;1.67;;;;;;;-145.69;nan;51905.75;5115494;28;20658;-82
2023/08/18 02:14:28;;;;;;;3.60;2.15;;;;;;;-145.69;nan;51959.22;5115317;28;20221;-82
2023/08/18 02:16:57;;;;;;;3.53;1.60;;;;;;;-145.69;nan;51923.56;5115917;28;20201;-81
2023/08/18 02:19:23;;;;;;;2.58;1.70;;;;;;;-145.69;nan;51885.94;5115230;28;20197;-81
2023/08/18 02:21:50;;;;;;;6.82;2.17;;;;;;;-145.69;nan;51901.78;5115271;28;20232;-82
2023/08/18 02:24:16;;;;;;;4.43;2.05;;;;;;;-145.69;nan;51917.63;5115374;28;20201;-82
2023/08/18 02:26:43;;;;;;;5.00;2.10;;;;;;;-145.69;nan;51925.56;5115610;28;20194;-82
2023/08/18 02:29:09;;;;;;;4.13;2.05;;;;;;;-145.69;nan;51937.44;5115376;28;20200;-81
2023/08/18 02:31:36;;;;;;;4.90;2.00;;;;;;;-145.69;nan;51919.63;5114784;28;20194;-82
2023/08/18 02:34:04;;;;;;;2.38;1.75;;;;;;;-145.69;nan;51917.63;5115290;28;20644;-81
2023/08/18 02:36:30;;;;;;;4.85;2.30;;;;;;;-145.69;nan;51925.56;5114354;28;20656;-82
2023/08/18 02:38:57;;;;;;;5.63;2.15;;;;;;;-145.69;nan;51931.50;5115220;28;20201;-81
2023/08/18 02:41:23;;;;;;;5.30;2.50;;;;;;;-145.69;nan;51889.91;5114968;28;20228;-82
2023/08/18 02:43:50;;;;;;;7.60;2.35;;;;;;;-145.69;nan;51921.59;5115360;28;20205;-82
2023/08/18 02:46:16;;;;;;;3.58;2.20;;;;;;;-145.69;nan;51925.56;5115250;28;20205;-81
2023/08/18 02:48:43;;;;;;;6.93;2.60;;;;;;;-145.69;nan;51941.41;5115242;28;20208;-82
2023/08/18 02:51:11;;;;;;;4.35;2.17;;;;;;;-145.69;nan;51903.78;5114899;28;20207;-82
2023/08/18 02:53:38;;;;;;;5.78;2.75;;;;;;;-145.69;nan;51913.69;5114426;28;20205;-82
2023/08/18 02:56:04;;;;;;;6.07;2.60;;;;;;;-145.69;nan;51935.47;5114884;28;20197;-81
2023/08/18 02:58:33;;;;;;;4.85;2.67;;;;;;;-145.69;nan;51878.03;5114407;28;20204;-81
2023/08/18 03:01:49;;;;;;;5.10;2.72;;;;;;;-145.69;nan;51941.41;5105461;28;20198;-81
2023/08/18 03:04:15;;;;;;;6.85;2.97;;;;;;;-145.69;nan;51905.75;5105805;28;20197;-82
2023/08/18 03:06:43;;;;;;;4.10;2.00;;;;;;;-145.69;nan;51931.50;5114636;28;20193;-82
2023/08/18 03:09:09;;;;;;;6.60;2.50;;;;;;;-145.69;nan;51893.88;5114675;28;20683;-81
2023/08/18 03:11:36;;;;;;;3.88;2.42;;;;;;;-145.69;nan;51937.44;5114692;28;20189;-80
2023/08/18 03:14:03;;;;;;;6.03;2.58;;;;;;;-145.69;nan;51935.47;5124282;27;20236;-78
2023/08/18 03:16:29;;;;;;;5.43;2.83;;;;;;;-145.69;nan;51893.88;5118592;27;20189;-82
2023/08/18 03:18:56;;;;;;;6.40;2.58;;;;;;;-145.69;nan;51947.34;5113790;28;20198;-81
2023/08/18 03:21:22;;;;;;;6.63;2.50;;;;;;;-145.69;nan;51913.69;5096128;28;20308;-82
2023/08/18 03:23:50;;;;;;;5.90;2.30;;;;;;;-145.69;nan;51933.47;5114270;28;20201;-81
2023/08/18 03:26:17;;;;;;;5.97;3.00;;;;;;;-145.69;nan;51933.47;5113870;28;20212;-81
2023/08/18 03:28:43;;;;;;;4.53;2.63;;;;;;;-145.69;nan;51933.47;5114256;28;20614;-81
2023/08/18 03:31:10;;;;;;;4.07;2.40;;;;;;;-145.69;nan;51925.56;5113780;28;20201;-79
2023/08/18 03:33:37;;;;;;;5.75;2.80;;;;;;;-145.69;nan;51943.38;5114440;28;20202;-80
2023/08/18 03:36:03;;;;;;;4.05;2.60;;;;;;;-145.69;nan;51889.91;5114017;28;20193;-81
2023/08/18 03:38:30;;;;;;;5.13;2.47;;;;;;;-145.69;nan;51935.47;5114236;28;20221;-81
2023/08/18 03:41:04;;;;;;;5.18;2.22;;;;;;;-145.69;nan;51923.56;5113600;28;20190;-82
2023/08/18 03:43:31;;;;;;;5.78;2.78;;;;;;;-145.69;nan;51935.47;5113789;28;20204;-81
2023/08/18 03:45:59;;;;;;;4.55;2.58;;;;;;;-145.69;nan;51965.16;5113895;28;20280;-81
2023/08/18 03:48:26;;;;;;;5.68;2.53;;;;;;;-145.69;nan;51941.41;5113527;28;20201;-81
2023/08/18 03:50:53;;;;;;;5.95;2.30;;;;;;;-145.69;nan;51917.63;5113522;28;20194;-81
2023/08/18 03:53:22;;;;;;;4.30;2.38;;;;;;;-145.69;nan;51925.56;5112601;28;20590;-80
2023/08/18 03:55:50;;;;;;;5.15;2.45;;;;;;;-145.69;nan;51907.72;5112657;28;20189;-82
2023/08/18 03:58:18;;;;;;;2.83;2.22;;;;;;;-145.69;nan;51925.56;5113415;28;20193;-82
2023/08/18 04:00:45;;;;;;;6.05;2.58;;;;;;;-145.69;nan;51933.47;5113570;28;20205;-81
2023/08/18 04:03:11;;;;;;;7.70;2.65;;;;;;;-145.69;nan;51961.19;5113566;28;20229;-82
2023/08/18 04:05:37;;;;;;;4.78;2.90;;;;;;;-145.69;nan;51909.72;5113635;28;20208;-81
2023/08/18 04:08:05;;;;;;;7.53;3.53;;;;;;;-145.69;nan;51931.50;5112960;28;20529;-82
2023/08/18 04:10:31;;;;;;;6.43;2.85;;;;;;;-145.69;nan;51917.63;5113294;28;20206;-81
2023/08/18 04:12:58;;;;;;;7.28;2.80;;;;;;;-145.69;nan;51921.59;5113344;28;20205;-81
2023/08/18 04:15:25;;;;;;;4.65;2.38;;;;;;;-145.69;nan;51947.34;5113176;28;20193;-81
2023/08/18 04:17:52;;;;;;;4.30;2.30;;;;;;;-145.69;nan;51981.00;5113328;28;20198;-81
2023/08/18 04:20:18;;;;;;;3.75;2.80;;;;;;;-145.69;nan;51961.19;5113495;28;20201;-81
2023/08/18 04:22:45;;;;;;;7.90;3.33;;;;;;;-145.69;nan;51957.25;5113060;28;20228;-81
2023/08/18 04:25:11;;;;;;;5.75;2.42;;;;;;;-145.69;nan;51971.09;5112303;28;20201;-82
2023/08/18 04:27:38;;;;;;;10.30;3.08;;;;;;;-145.69;nan;51937.44;5112832;28;20189;-80
2023/08/18 04:30:06;;;;;;;7.32;3.10;;;;;;;-145.69;nan;51965.16;5113086;28;20623;-82
2023/08/18 04:32:34;;;;;;;5.95;3.03;;;;;;;-145.69;nan;51957.25;5113094;28;20556;-82
2023/08/18 04:35:01;;;;;;;4.15;2.80;;;;;;;-145.69;nan;51965.16;5113298;28;20194;-82
2023/08/18 04:37:28;;;;;;;6.45;2.80;;;;;;;-145.69;nan;51961.19;5112793;28;20186;-82
2023/08/18 04:39:54;;;;;;;5.85;2.90;;;;;;;-145.69;nan;51945.34;5113570;28;20198;-82
2023/08/18 04:42:20;;;;;;;5.93;2.60;;;;;;;-145.69;nan;51955.25;5113126;28;20217;-82
2023/08/18 04:44:47;;;;;;;5.82;2.53;;;;;;;-145.69;nan;51975.06;5113306;28;20197;-82
2023/08/18 04:47:13;;;;;;;5.10;2.75;;;;;;;-145.69;nan;51979.03;5113118;28;20201;-82
2023/08/18 04:49:41;;;;;;;5.35;2.85;;;;;;;-145.69;nan;51943.38;5113096;28;20201;-82
2023/08/18 04:52:10;;;;;;;8.63;2.65;;;;;;;-145.69;nan;51945.34;5113227;28;20206;-82
2023/08/18 04:54:36;;;;;;;11.35;2.75;;;;;;;-145.69;nan;51941.41;5112472;28;20193;-82
2023/08/18 04:57:03;;;;;;;4.95;2.60;;;;;;;-145.69;nan;51945.34;5113034;28;20694;-82
2023/08/18 04:59:30;;;;;;;4.85;2.30;;;;;;;-145.69;nan;51939.41;5112852;28;20208;-82
2023/08/18 05:01:57;;;;;;;5.55;2.85;;;;;;;-145.69;nan;51941.41;5112954;28;20320;-82
2023/08/18 05:04:23;;;;;;;7.90;2.70;;;;;;;-145.69;nan;51961.19;5112603;28;20644;-81
2023/08/18 05:06:51;;;;;;;3.55;2.80;;;;;;;-145.69;nan;51953.28;5112985;28;20197;-82
2023/08/18 05:09:18;;;;;;;8.15;2.90;;;;;;;-145.69;nan;51961.19;5112295;28;20271;-82
2023/08/18 05:11:44;;;;;;;6.95;2.78;;;;;;;-145.69;nan;51943.38;5112815;28;20201;-81
2023/08/18 05:14:11;;;;;;;4.97;3.03;;;;;;;-145.69;nan;51917.63;5112571;28;20237;-82
2023/08/18 05:16:37;;;;;;;7.57;2.95;;;;;;;-145.69;nan;51943.38;5112806;28;20201;-81
2023/08/18 05:19:05;;;;;;;6.43;2.60;;;;;;;-145.69;nan;51933.47;5114922;28;20212;-82
2023/08/18 05:21:31;;;;;;;7.63;2.80;;;;;;;-145.69;nan;51929.50;5112841;28;20224;-80
2023/08/18 05:23:59;;;;;;;6.22;2.40;;;;;;;-145.69;nan;51941.41;5115726;28;20220;-80
2023/08/18 05:26:26;;;;;;;4.93;2.65;;;;;;;-145.69;nan;51931.50;5116683;28;20198;-81
2023/08/18 05:28:52;;;;;;;4.93;2.60;;;;;;;-145.69;nan;51965.16;5116332;28;20198;-81
2023/08/18 05:31:19;;;;;;;7.35;3.00;;;;;;;-145.69;nan;51937.44;5116678;28;20197;-82
2023/08/18 05:33:45;;;;;;;4.13;2.65;;;;;;;-145.69;nan;51947.34;5116755;28;20205;-83
2023/08/18 05:36:12;;;;;;;4.80;2.35;;;;;;;-145.69;nan;51969.13;5116352;28;20206;-82
2023/08/18 05:38:38;;;;;;;3.92;2.47;;;;;;;-145.69;nan;51925.56;5116273;28;20189;-82
2023/08/18 05:41:07;;;;;;;5.43;2.30;;;;;;;-145.69;nan;51931.50;5115211;28;20189;-81
2023/08/18 05:43:35;;;;;;;8.70;2.58;;;;;;;-145.69;nan;51913.69;5115960;28;20829;-82
2023/08/18 05:46:03;;;;;;;7.10;2.50;;;;;;;-145.69;nan;51941.41;5116345;28;20197;-82
2023/08/18 05:48:30;;;;;;;5.75;2.40;;;;;;;-145.69;nan;51917.63;5115957;28;20247;-82
2023/08/18 05:50:57;;;;;;;7.53;2.47;;;;;;;-145.69;nan;51933.47;5115920;28;20288;-82
2023/08/18 05:53:23;;;;;;;4.30;2.20;;;;;;;-145.69;nan;51919.63;5116112;28;20185;-82
2023/08/18 05:55:50;;;;;;;2.80;1.73;;;;;;;-145.69;nan;51911.69;5098134;28;20200;-82
2023/08/18 05:58:18;;;;;;;3.67;1.90;;;;;;;-145.69;nan;51933.47;5116872;28;20193;-82
2023/08/18 06:00:47;;;;;;;3.53;2.25;;;;;;;-145.69;nan;51927.53;5116009;28;20201;-82
2023/08/18 06:03:14;;;;;;;8.55;2.22;;;;;;;-145.69;nan;51911.69;5116022;28;20241;-82
2023/08/18 06:05:40;;;;;;;3.55;2.08;;;;;;;-145.69;nan;51921.59;5117215;28;20201;-81
2023/08/18 06:08:07;;;;;;;6.00;2.40;;;;;;;-145.69;nan;51937.44;5116117;28;20201;-82
2023/08/18 06:10:33;;;;;;;5.93;2.40;;;;;;;-145.69;nan;51919.63;5115972;28;20536;-82
2023/08/18 06:13:00;;;;;;;5.38;2.08;;;;;;;-145.69;nan;51945.34;5115925;28;20205;-82
2023/08/18 06:15:28;;;;;;;3.00;1.73;;;;;;;-145.69;nan;51907.72;5116273;28;20583;-82
2023/08/18 06:17:54;;;;;;;4.85;2.30;;;;;;;-145.69;nan;51911.69;5116288;28;20211;-82
2023/08/18 06:20:21;;;;;;;4.93;1.90;;;;;;;-145.69;nan;51921.59;5116486;28;20201;-82
2023/08/18 06:22:47;;;;;;;4.85;1.83;;;;;;;-145.69;nan;51943.38;5116139;28;20255;-82
2023/08/18 06:25:14;;;;;;;4.80;1.92;;;;;;;-145.69;nan;51887.94;5116508;28;20557;-82
2023/08/18 06:27:40;;;;;;;3.17;1.90;;;;;;;-145.69;nan;51907.72;5116089;28;20667;-82
2023/08/18 06:30:08;;;;;;;6.60;2.30;;;;;;;-145.69;nan;51874.06;5115824;28;20193;-82
2023/08/18 06:32:36;;;;;;;3.83;2.20;;;;;;;-145.69;nan;51915.66;5115520;28;20193;-82
2023/08/18 06:35:02;;;;;;;2.92;2.10;;;;;;;-145.69;nan;51921.59;5116350;28;20666;-82
2023/08/18 06:37:29;;;;;;;3.63;1.85;;;;;;;-145.69;nan;51913.69;5116557;28;20205;-81
2023/08/18 06:39:56;;;;;;;4.20;2.00;;;;;;;-145.69;nan;51885.94;5116332;28;20676;-82
2023/08/18 06:42:22;;;;;;;3.70;1.73;;;;;;;-145.69;nan;51882.00;5116256;28;20220;-81
2023/08/18 06:44:49;;;;;;;5.15;2.00;;;;;;;-145.69;nan;51876.06;5116565;28;20198;-82
2023/08/18 06:47:15;;;;;;;5.20;1.92;;;;;;;-145.69;nan;51882.00;5098148;28;20236;-82
2023/08/18 06:49:43;;;;;;;3.25;1.90;;;;;;;-145.69;nan;51880.00;5115789;28;20202;-82
2023/08/18 06:52:10;;;;;;;4.80;1.92;;;;;;;-145.69;nan;51889.91;5115157;28;20553;-82
2023/08/18 06:54:37;;;;;;;3.28;1.55;;;;;;;-145.69;nan;51870.13;5115462;28;20197;-81
2023/08/18 06:57:04;;;;;;;2.75;1.40;;;;;;;-145.69;nan;51885.94;5115666;28;20201;-81
2023/08/18 06:59:30;;;;;;;3.72;1.52;;;;;;;-145.69;nan;51874.06;5114991;28;20201;-82
2023/08/18 07:01:57;;;;;;;2.67;1.40;;;;;;;-145.69;nan;51878.03;5115610;28;20205;-82
2023/08/18 07:04:23;;;;;;;3.30;1.67;;;;;;;-145.69;nan;51856.25;5096429;28;20714;-82
2023/08/18 07:06:51;;;;;;;2.72;1.50;;;;;;;-145.69;nan;51856.25;5114960;28;20205;-82
2023/08/18 07:09:18;;;;;;;6.00;1.98;;;;;;;-145.69;nan;51850.31;5114571;28;20709;-81
2023/08/18 07:11:44;;;;;;;5.07;1.85;;;;;;;-145.69;nan;51846.34;5114650;28;20320;-81
2023/08/18 07:14:11;;;;;;;4.32;1.63;;;;;;;-145.69;nan;51846.34;5111178;28;20229;-82
2023/08/18 07:16:38;;;;;;;2.85;1.67;;;;;;;-145.69;nan;51852.28;5096308;28;20201;-82
2023/08/18 07:19:04;;;;;;;4.45;2.08;;;;;;;-145.69;nan;51838.44;5096823;28;20254;-82
2023/08/18 07:21:31;;;;;;;4.88;1.80;;;;;;;-145.69;nan;51822.59;5114493;28;20197;-82
2023/08/18 07:23:59;;;;;;;4.15;1.60;;;;;;;-145.69;nan;51816.66;5114866;28;20684;-82
2023/08/18 07:26:25;;;;;;;2.97;1.70;;;;;;;-145.69;nan;51828.53;5114693;28;20204;-82
2023/08/18 07:28:52;;;;;;;2.17;1.50;;;;;;;-145.69;nan;51824.56;5123127;27;20204;-82
2023/08/18 07:31:18;;;;;;;2.97;1.40;;;;;;;-145.69;nan;51828.53;5135161;27;20563;-82
2023/08/18 07:33:45;;;;;;;4.07;1.20;;;;;;;-145.69;nan;51844.38;5135021;27;20197;-82
2023/08/18 07:36:11;;;;;;;5.57;1.77;;;;;;;-145.69;nan;51850.31;5135159;27;20200;-82
2023/08/18 07:38:38;;;;;;;2.85;1.25;;;;;;;-145.69;nan;51840.41;5116659;27;20204;-82
2023/08/18 07:41:06;;;;;;;5.00;1.40;;;;;;;-145.69;nan;51820.59;5114437;28;20544;-82
2023/08/18 07:43:33;;;;;;;3.10;1.25;;;;;;;-145.69;nan;51798.81;5111550;28;20225;-82
2023/08/18 07:46:00;;;;;;;4.00;1.40;;;;;;;-145.69;nan;51836.44;5114328;28;20193;-81
2023/08/18 07:48:26;;;;;;;2.47;1.20;;;;;;;-145.69;nan;51800.81;5114288;28;20197;-82
2023/08/18 07:50:53;;;;;;;6.28;1.40;;;;;;;-145.69;nan;51808.72;5114449;28;20209;-81
2023/08/18 07:53:19;;;;;;;2.00;1.05;;;;;;;-145.69;nan;51794.88;5114301;28;20208;-82
2023/08/18 07:55:46;;;;;;;3.00;1.10;;;;;;;-145.69;nan;51838.44;5114097;28;20201;-82
2023/08/18 07:58:14;;;;;;;2.40;1.30;;;;;;;-145.69;nan;51784.97;5113946;28;20227;-82
2023/08/18 08:00:41;;;;;;;1.65;1.10;;;;;;;-145.69;nan;51755.25;5114412;28;20203;-81
2023/08/18 08:03:07;;;;;;;4.28;1.38;;;;;;;-145.69;nan;51808.72;5114313;28;20233;-82
2023/08/18 08:05:34;;;;;;;9.90;1.40;;;;;;;-145.69;nan;51788.94;5114536;28;20197;-82
2023/08/18 08:08:03;;;;;;;3.65;1.50;;;;;;;-145.69;nan;51794.88;5115057;28;20541;-81
2023/08/18 08:10:30;;;;;;;3.13;1.30;;;;;;;-145.69;nan;51783.00;5114651;28;20208;-82
2023/08/18 08:12:57;;;;;;;3.33;1.23;;;;;;;-145.69;nan;51751.31;5113974;28;20198;-82
2023/08/18 08:15:24;;;;;;;4.57;1.85;;;;;;;-145.69;nan;51759.22;5115580;28;20209;-82
2023/08/18 08:17:52;;;;;;;1.67;0.98;;;;;;;-145.69;nan;51769.13;5113716;28;20196;-82
2023/08/18 08:20:18;;;;;;;3.22;1.50;;;;;;;-145.69;nan;51755.25;5113999;28;20193;-82
2023/08/18 08:22:47;;;;;;;12.50;1.80;;;;;;;-145.69;nan;51755.25;5113546;28;20591;-82
2023/08/18 08:25:15;;;;;;;2.63;1.40;;;;;;;-145.69;nan;51757.25;5113846;28;20193;-82
2023/08/18 08:27:41;;;;;;;3.45;1.60;;;;;;;-145.69;nan;51759.22;5113751;28;20204;-82
2023/08/18 08:30:12;;;;;;;4.43;1.70;;;;;;;-145.69;nan;51747.34;5114093;28;20540;-82
2023/08/18 08:32:40;;;;;;;5.72;1.38;;;;;;;-145.69;nan;51731.50;5113306;28;20193;-82
2023/08/18 08:35:07;;;;;;;3.17;1.48;;;;;;;-145.69;nan;51731.50;5113446;28;20731;-82
2023/08/18 08:37:34;;;;;;;2.88;1.38;;;;;;;-145.69;nan;51715.66;5113514;28;20559;-82
2023/08/18 08:40:00;;;;;;;4.55;1.80;;;;;;;-145.69;nan;51753.28;5112887;28;20197;-82
2023/08/18 08:42:27;;;;;;;3.88;1.35;;;;;;;-145.69;nan;51747.34;5113249;28;20196;-82
2023/08/18 08:44:53;;;;;;;7.13;1.65;;;;;;;-145.69;nan;51743.38;5113011;28;20698;-82
2023/08/18 08:47:20;;;;;;;2.13;1.23;;;;;;;-145.69;nan;51759.22;5112921;28;20193;-82
2023/08/18 08:49:58;;;;;;;3.47;1.48;;;;;;;-145.69;nan;51745.38;5112783;28;20201;-82
2023/08/18 08:52:27;;;;;;;5.97;1.90;;;;;;;-145.69;nan;51739.44;5111175;28;20208;-82
2023/08/18 08:54:59;;;;;;;6.25;1.65;;;;;;;-145.69;nan;51745.38;5112044;28;20209;-82
2023/08/18 08:57:25;;;;;;;5.47;1.55;;;;;;;-145.69;nan;51739.44;5115912;28;20206;-82
2023/08/18 08:59:52;;;;;;;4.15;1.33;;;;;;;-145.69;nan;51747.34;5115925;28;20208;-82
2023/08/18 09:02:19;;;;;;;3.83;1.67;;;;;;;-145.69;nan;51733.50;5115004;28;20193;-82
2023/08/18 09:04:46;;;;;;;7.30;1.63;;;;;;;-145.69;nan;51725.56;5115127;28;20239;-82
2023/08/18 09:07:14;;;;;;;5.07;1.67;;;;;;;-145.69;nan;51727.53;5117357;28;20205;-82
2023/08/18 09:09:40;;;;;;;4.53;1.58;;;;;;;-145.69;nan;51711.72;5117118;28;20274;-82
2023/08/18 09:12:08;;;;;;;3.72;1.50;;;;;;;-145.69;nan;51725.56;5117533;28;20533;-82
2023/08/18 09:14:35;;;;;;;3.92;1.65;;;;;;;-145.69;nan;51711.72;5116238;28;20276;-82
2023/08/18 09:17:02;;;;;;;4.03;1.25;;;;;;;-145.69;nan;51731.50;5104138;28;20193;-82
2023/08/18 09:19:29;;;;;;;5.35;1.73;;;;;;;-145.69;nan;51727.53;5117558;28;20202;-82
2023/08/18 09:21:57;;;;;;;6.55;1.58;;;;;;;-145.69;nan;51687.94;5117799;28;20197;-82
2023/08/18 09:24:26;;;;;;;5.82;1.50;;;;;;;-145.69;nan;51695.88;5117470;28;20252;-81
2023/08/18 09:26:52;;;;;;;3.88;1.50;;;;;;;-145.69;nan;51693.88;5117413;28;20197;-82
2023/08/18 09:29:19;;;;;;;3.25;1.40;;;;;;;-145.69;nan;51715.66;5116691;28;20204;-82
2023/08/18 09:31:46;;;;;;;2.70;1.50;;;;;;;-145.69;nan;51707.75;5116650;28;20711;-82
2023/08/18 09:34:19;;;;;;;6.40;1.48;;;;;;;-145.69;nan;51703.78;5116761;28;20221;-82
2023/08/18 09:36:52;;;;;;;3.45;1.40;;;;;;;-145.69;nan;51695.88;5117296;27;20201;-81
2023/08/18 09:39:18;;;;;;;6.38;1.52;;;;;;;-145.69;nan;51735.47;5117113;28;20220;-82
2023/08/18 09:41:49;;;;;;;3.75;1.42;;;;;;;-145.69;nan;51707.75;5116774;28;20190;-83
2023/08/18 09:44:16;;;;;;;4.53;1.60;;;;;;;-145.69;nan;51719.63;5116795;28;20699;-82
2023/08/18 09:46:47;;;;;;;3.53;1.58;;;;;;;-145.69;nan;51701.81;5116291;28;20229;-82
2023/08/18 09:49:17;;;;;;;5.00;1.40;;;;;;;-145.69;nan;51687.94;5117076;28;20216;-82
2023/08/18 09:51:46;;;;;;;7.32;1.63;;;;;;;-145.69;nan;51699.81;5116526;28;20208;-82
2023/08/18 09:54:13;;;;;;;5.75;1.88;;;;;;;-145.69;nan;51697.84;5116434;28;20193;-82
2023/08/18 09:56:42;;;;;;;6.03;1.40;;;;;;;-145.69;nan;51707.75;5116084;28;20193;-82
2023/08/18 09:59:17;;;;;;;4.32;1.45;;;;;;;-145.69;nan;51697.84;5116353;28;20292;-82
2023/08/18 10:01:45;;;;;;;7.25;1.70;;;;;;;-145.69;nan;51685.97;5115936;28;20283;-82
2023/08/18 10:04:12;;;;;;;6.80;1.83;;;;;;;-145.69;nan;51693.88;5116064;28;20217;-83
2023/08/18 10:06:40;;;;;;;5.10;1.90;;;;;;;-145.69;nan;51695.88;5115028;28;20197;-82
2023/08/18 10:09:07;;;;;;;4.80;1.60;;;;;;;-145.69;nan;51695.88;5116144;28;20197;-82
2023/08/18 10:11:35;;;;;;;6.68;1.75;;;;;;;-145.69;nan;51691.91;5116141;28;20208;-82
2023/08/18 10:14:02;;;;;;;6.38;1.90;;;;;;;-145.69;nan;51721.59;5116166;28;20240;-82
2023/08/18 10:16:32;;;;;;;5.20;1.85;;;;;;;-145.69;nan;51701.81;5116245;28;20758;-81
2023/08/18 10:18:59;;;;;;;3.42;1.52;;;;;;;-145.69;nan;51695.88;5116423;28;20201;-82
2023/08/18 10:21:27;;;;;;;7.18;1.52;;;;;;;-145.69;nan;51674.09;5115567;28;20198;-81
2023/08/18 10:23:54;;;;;;;4.60;1.45;;;;;;;-145.69;nan;51695.88;5115773;28;20312;-82
2023/08/18 10:26:23;;;;;;;4.45;1.60;;;;;;;-145.69;nan;51689.94;5116091;28;20545;-82
2023/08/18 10:28:50;;;;;;;10.40;1.80;;;;;;;-145.69;nan;51697.84;5116655;28;20197;-82
2023/08/18 10:31:16;;;;;;;5.75;1.48;;;;;;;-145.69;nan;51672.09;5116425;28;20200;-82
2023/08/18 10:33:48;;;;;;;6.50;1.65;;;;;;;-145.69;nan;51680.03;5115630;28;20545;-83
2023/08/18 10:36:22;;;;;;;8.95;1.70;;;;;;;-145.69;nan;51691.91;5114000;28;20731;-82
2023/08/18 10:38:51;;;;;;;4.88;1.65;;;;;;;-145.69;nan;51695.88;5114177;28;20564;-82
2023/08/18 10:41:25;;;;;;;8.70;1.80;;;;;;;-145.69;nan;51682.00;5114920;28;20190;-82
2023/08/18 10:43:56;;;;;;;7.10;1.80;;;;;;;-145.69;nan;51646.38;5115692;28;20224;-83
2023/08/18 10:46:25;;;;;;;5.35;1.83;;;;;;;-145.69;nan;51674.09;5114817;28;20202;-83
2023/08/18 10:48:52;;;;;;;6.72;1.75;;;;;;;-145.69;nan;51676.06;5114934;28;20640;-83
2023/08/18 10:51:20;;;;;;;10.65;1.65;;;;;;;-145.69;nan;51705.75;5115937;28;20205;-82
2023/08/18 10:53:50;;;;;;;7.68;1.88;;;;;;;-145.69;nan;51670.13;5116218;28;20208;-81
2023/08/18 10:56:17;;;;;;;7.30;1.70;;;;;;;-145.69;nan;51678.03;5116689;28;20201;-82
2023/08/18 10:58:43;;;;;;;5.25;1.65;;;;;;;-145.69;nan;51672.09;5115791;28;20219;-82
2023/08/18 11:01:10;;;;;;;4.13;1.40;;;;;;;-145.69;nan;51689.94;5114595;28;20185;-82
2023/08/18 11:03:38;;;;;;;6.47;1.50;;;;;;;-145.69;nan;51662.22;5116452;28;20240;-83
2023/08/18 11:06:06;;;;;;;5.05;1.50;;;;;;;-145.69;nan;51652.31;5116383;28;20200;-83
2023/08/18 11:08:33;;;;;;;5.55;1.70;;;;;;;-145.69;nan;51672.09;5101696;28;20200;-83
2023/08/18 11:11:00;;;;;;;7.95;1.92;;;;;;;-145.69;nan;51683.97;5116014;28;20271;-82
2023/08/18 11:13:28;;;;;;;9.70;2.20;;;;;;;-145.69;nan;51652.31;5103310;28;20233;-84
2023/08/18 11:15:56;;;;;;;4.93;1.48;;;;;;;-145.69;nan;51660.22;5102786;28;20243;-81
2023/08/18 11:18:24;;;;;;;5.43;1.75;;;;;;;-145.69;nan;51664.19;5113352;28;20208;-83
2023/08/18 11:20:52;;;;;;;5.05;1.40;;;;;;;-145.69;nan;51640.44;5113805;28;20614;-83
2023/08/18 11:23:20;;;;;;;6.22;1.52;;;;;;;-145.69;nan;51660.22;5113320;28;20197;-82
2023/08/18 11:25:46;;;;;;;7.85;1.90;;;;;;;-145.69;nan;51648.34;5114277;28;20231;-83
2023/08/18 11:28:14;;;;;;;7.85;2.42;;;;;;;-145.69;nan;51668.16;5114412;28;20201;-83
2023/08/18 11:30:41;;;;;;;9.02;2.10;;;;;;;-145.69;nan;51646.38;5114405;28;20204;-83
2023/08/18 11:33:07;;;;;;;8.60;1.95;;;;;;;-145.69;nan;51654.28;5105926;28;20198;-83
2023/08/18 11:35:34;;;;;;;4.95;1.70;;;;;;;-145.69;nan;51638.44;5099591;28;20197;-83